Aquebogue, New York
Current Conditions -  °F | °C
As of 5:53 AM on Saturday 25 Oct 2014 (Local Time) from KFOK Reporting Station
Clear Clear  
Wind Chill: 38°   Ceiling: Unl
Heat Index: 41°   Visibility: 10mi
Dew Point: 37°   Wind: 5mph
Humidity: 86%   Direction: 300°WNW
Pressure: 29.84"   Gusts: NA
Location:  40.94°N, 72.61°W
Report Text: KFOK 250953Z AUTO 30004KT 10SM CLR 05/03 A2984 RMK AO2 SLP106 T00500028 TSNO
Loading
Personal Weather Stations






























Interactive Weather Map
Tropical Storm Tracking
New forecast layout! Learn more

10-Day Weather Forecast

Advertisements
Track Severe Weather on mobile